Mc Donald, Pennsylvania
Current Conditions -  °F | °C
As of 8:51 AM on Monday 22 Dec 2014 (Local Time) from KPIT Reporting Station
Haze Haze  
Wind Chill: -6°   Ceiling: 25000
Heat Index: -3°   Visibility: 5mi
Dew Point: -4°   Wind: 5mph
Humidity: 89%   Direction: 120°ESE
Pressure: 30.12"   Gusts: NA
Location:  40.3662°N, 80.2739°W
Report Text: KPIT 221351Z 12004KT 5SM BR SCT070 BKN250 M03/M04 A3012 RMK AO2 SLP222 T10281044
Loading
Personal Weather Stations






























Interactive Weather Map New forecast layout! Learn more

10-Day Weather Forecast

Advertisements
Track Severe Weather on mobile